Terminal Aerodrome Forecast
Issued by NWS

Home | Current Version | Previous Version | Text Only | Print | Product List | Glossary On
Versions: 1 2 3 4 5 6 7 8 9 10 11 12 13 14 15 16 17 18 19 20 21 22 23 24 25 26
000
FTUS46 KSGX 300935 AAA
TAFSAN
TAF AMD
KSAN 300935Z 3010/3112 VRB04KT P6SM OVC012
     FM301100 VRB04KT 5SM BR OVC008
     FM301700 27007KT P6SM SCT010
     FM302000 27010KT P6SM FEW010
     FM310200 VRB05KT P6SM SCT010
     FM310500 VRB04KT 6SM BR OVC009=

USA.gov is the U.S. government's official web portal to all federal, state and local government web resources and services.